Map

Track Data

SID SEASON NUMBER BASIN SUBBASIN NAME ISO_TIME NATURE LAT LON WMO_WIND WMO_PRES WMO_AGENCY TRACK_TYPE DIST2LAND LANDFALL IFLAG USA_AGENCY USA_ATCF_ID USA_LAT USA_LON USA_RECORD USA_STATUS USA_WIND USA_PRES USA_SSHS USA_R34_NE USA_R34_SE USA_R34_SW USA_R34_NW USA_R50_NE USA_R50_SE USA_R50_SW USA_R50_NW USA_R64_NE USA_R64_SE USA_R64_SW USA_R64_NW USA_POCI USA_ROCI USA_RMW USA_EYE TOKYO_LAT TOKYO_LON TOKYO_GRADE TOKYO_WIND TOKYO_PRES TOKYO_R50_DIR TOKYO_R50_LONG TOKYO_R50_SHORT TOKYO_R30_DIR TOKYO_R30_LONG TOKYO_R30_SHORT TOKYO_LAND CMA_LAT CMA_LON CMA_CAT CMA_WIND CMA_PRES HKO_LAT HKO_LON HKO_CAT HKO_WIND HKO_PRES NEWDELHI_LAT NEWDELHI_LON NEWDELHI_GRADE NEWDELHI_WIND NEWDELHI_PRES NEWDELHI_CI NEWDELHI_DP NEWDELHI_POCI REUNION_LAT REUNION_LON REUNION_TYPE REUNION_WIND REUNION_PRES REUNION_TNUM REUNION_CI REUNION_RMW REUNION_R34_NE REUNION_R34_SE REUNION_R34_SW REUNION_R34_NW REUNION_R50_NE REUNION_R50_SE REUNION_R50_SW REUNION_R50_NW REUNION_R64_NE REUNION_R64_SE REUNION_R64_SW REUNION_R64_NW BOM_LAT BOM_LON BOM_TYPE BOM_WIND BOM_PRES BOM_TNUM BOM_CI BOM_RMW BOM_R34_NE BOM_R34_SE BOM_R34_SW BOM_R34_NW BOM_R50_NE BOM_R50_SE BOM_R50_SW BOM_R50_NW BOM_R64_NE BOM_R64_SE BOM_R64_SW BOM_R64_NW BOM_ROCI BOM_POCI BOM_EYE BOM_POS_METHOD BOM_PRES_METHOD NADI_LAT NADI_LON NADI_CAT NADI_WIND NADI_PRES WELLINGTON_LAT WELLINGTON_LON WELLINGTON_WIND WELLINGTON_PRES DS824_LAT DS824_LON DS824_STAGE DS824_WIND DS824_PRES TD9636_LAT TD9636_LON TD9636_STAGE TD9636_WIND TD9636_PRES TD9635_LAT TD9635_LON TD9635_WIND TD9635_PRES TD9635_ROCI NEUMANN_LAT NEUMANN_LON NEUMANN_CLASS NEUMANN_WIND NEUMANN_PRES MLC_LAT MLC_LON MLC_CLASS MLC_WIND MLC_PRES USA_GUST BOM_GUST BOM_GUST_PER REUNION_GUST REUNION_GUST_PER USA_SEAHGT USA_SEARAD_NE USA_SEARAD_SE USA_SEARAD_SW USA_SEARAD_NW STORM_SPEED STORM_DIR
2009066S12081 2009 14 SI MM NOT_NAMED 2009-03-06 12:00:00 NR -11.6000 80.6000 main 1960 1960 O_____________ jtwc_sh SH192009 -11.6000 80.6000 DB 15 1010 -3 4 0
2009066S12081 2009 14 SI MM NOT_NAMED 2009-03-06 15:00:00 NR -11.8025 80.6075 main 1983 1983 P_____________ SH192009 -11.8025 80.6075 DB 15 1010 -3 4 0
2009066S12081 2009 14 SI MM NOT_NAMED 2009-03-06 18:00:00 NR -12.0000 80.6000 main 2005 2005 O_____________ jtwc_sh SH192009 -12.0000 80.6000 DB 15 1010 -3 4 185
2009066S12081 2009 14 SI MM NOT_NAMED 2009-03-06 21:00:00 NR -12.1925 80.5650 main 2027 2027 P_____________ SH192009 -12.1925 80.5650 DB 15 1010 -3 4 193
2009066S12081 2009 14 SI MM NOT_NAMED 2009-03-07 00:00:00 NR -12.4000 80.5000 main 2050 2050 O_____________ jtwc_sh SH192009 -12.4000 80.5000 DB 15 1010 -3 5 200
2009066S12081 2009 14 SI MM NOT_NAMED 2009-03-07 03:00:00 NR -12.6500 80.4000 main 2084 2084 P_____________ SH192009 -12.6500 80.4000 DB 15 1010 -3 5 201
2009066S12081 2009 14 SI MM NOT_NAMED 2009-03-07 06:00:00 NR -12.9000 80.3000 main 2106 2106 O_____________ jtwc_sh SH192009 -12.9000 80.3000 DB 15 1010 -3 5 201
2009066S12081 2009 14 SI MM NOT_NAMED 2009-03-07 09:00:00 NR -13.1000 80.2200 main 2129 2129 P_____________ SH192009 -13.1000 80.2200 DB 15 1010 -3 4 193
2009066S12081 2009 14 SI MM NOT_NAMED 2009-03-07 12:00:00 NR -13.3000 80.2000 main 2151 2151 O_____________ jtwc_sh SH192009 -13.3000 80.2000 DB 15 1010 -3 5 176
2009066S12081 2009 14 SI MM NOT_NAMED 2009-03-07 15:00:00 NR -13.5500 80.2550 main 2173 2173 P_____________ SH192009 -13.5500 80.2550 DB 15 1010 -3 5 159
2009066S12081 2009 14 SI MM NOT_NAMED 2009-03-07 18:00:00 NR -13.8000 80.4000 main 2207 2207 O_____________ jtwc_sh SH192009 -13.8000 80.4000 DB 15 1010 -3 6 143
2009066S12081 2009 14 SI MM NOT_NAMED 2009-03-07 21:00:00 NR -14.0074 80.6051 main 2229 2229 P_____________ SH192009 -14.0074 80.6051 DB 15 1010 -3 6 130
2009066S12081 2009 14 SI MM NOT_NAMED 2009-03-08 00:00:00 NR -14.2000 80.9000 main 2252 2252 O_____________ jtwc_sh SH192009 -14.2000 80.9000 DB 15 1010 -3 7 122
2009066S12081 2009 14 SI MM NOT_NAMED 2009-03-08 03:00:00 NR -14.3999 81.2551 main 2275 2275 P_____________ SH192009 -14.3999 81.2551 DB 17 1008 -3 9 117
2009066S12081 2009 14 SI MM NOT_NAMED 2009-03-08 06:00:00 NR -14.6000 81.7000 main 2299 2299 O_____________ jtwc_sh SH192009 -14.6000 81.7000 DB 20 1007 -3 10 112
2009066S12081 2009 14 SI MM NOT_NAMED 2009-03-08 09:00:00 NR -14.7776 82.2427 main 2325 2312 P_____________ SH192009 -14.7776 82.2427 DB 22 1005 -3 11 111
2009066S12081 2009 14 SI MM NOT_NAMED 2009-03-08 12:00:00 TS -15.0000 82.8000 main 2312 2293 O_____________ jtwc_sh SH192009 -15.0000 82.8000 TD 25 1004 -1 11 119
2009066S12081 2009 14 SI MM NOT_NAMED 2009-03-08 15:00:00 TS -15.3197 83.2502 main 2292 2289 P_____________ SH192009 -15.3197 83.2502 TD 25 1004 -1 11 129
2009066S12081 2009 14 SI MM NOT_NAMED 2009-03-08 18:00:00 TS -15.7000 83.7000 main 2289 2272 O_____________ jtwc_sh SH192009 -15.7000 83.7000 TD 25 1004 -1 1008 150 25 12 128
2009066S12081 2009 14 SI MM NOT_NAMED 2009-03-08 21:00:00 TS -16.0700 84.2427 main 2280 2264 P_____________ SH192009 -16.0700 84.2427 TD 25 1004 -1 1008 150 25 13 127
2009066S12081 2009 14 SI MM NOT_NAMED 2009-03-09 00:00:00 TS -16.5000 84.8000 main 2265 2258 O_____________ jtwc_sh SH192009 -16.5000 84.8000 TD 25 1004 -1 1008 150 25 15 130
2009066S12081 2009 14 SI MM NOT_NAMED 2009-03-09 03:00:00 TS -17.0196 85.4289 main 2262 2262 P_____________ SH192009 -17.0196 85.4289 TD 27 1002 -1 1008 150 37 15 139
2009066S12081 2009 14 SI MM NOT_NAMED 2009-03-09 06:00:00 TS -17.6000 85.8000 main 2285 2285 O_____________ jtwc_sh SH192009 -17.6000 85.8000 TD 30 1000 -1 1008 150 50 12 168
2009066S12081 2009 14 SI MM NOT_NAMED 2009-03-09 09:00:00 TS -18.2000 85.7000 main 2343 2321 V_____________ jtwc_sh SH192009 -18.2000 85.7000 TD 30 1000 -1 1008 157 47 9 149
2009066S12081 2009 14 SI MM NOT_NAMED 2009-03-09 12:00:00 TS -18.4000 86.3000 main 2321 2298 O_____________ jtwc_sh SH192009 -18.4000 86.3000 TS 35 996 0 1008 165 45 12 108
2009066S12081 2009 14 SI MM NOT_NAMED 2009-03-09 15:00:00 TS -18.5466 86.8547 main 2292 2282 P_____________ SH192009 -18.5466 86.8547 TS 35 996 0 1008 165 45 10 108
2009066S12081 2009 14 SI MM NOT_NAMED 2009-03-09 18:00:00 TS -18.7000 87.3000 main 2285 2279 O_____________ jtwc_sh SH192009 -18.7000 87.3000 TS 35 996 0 1008 165 45 8 120
2009066S12081 2009 14 SI MM NOT_NAMED 2009-03-09 21:00:00 TS -18.9498 87.5950 main 2286 2286 P_____________ SH192009 -18.9498 87.5950 TS 35 996 0 1008 165 45 7 137
2009066S12081 2009 14 SI MM NOT_NAMED 2009-03-10 00:00:00 TS -19.2000 87.8000 main 2302 2302 O_____________ jtwc_sh SH192009 -19.2000 87.8000 TS 35 996 0 1008 165 45 6 139
2009066S12081 2009 14 SI MM NOT_NAMED 2009-03-10 03:00:00 TS -19.3799 87.9926 main 2310 2304 P_____________ SH192009 -19.3799 87.9926 TS 32 998 -1 5 129
2009066S12081 2009 14 SI MM NOT_NAMED 2009-03-10 06:00:00 TS -19.5000 88.2000 main 2308 2292 O_____________ jtwc_sh SH192009 -19.5000 88.2000 TD 30 1000 -1 6 107
2009066S12081 2009 14 SI MM NOT_NAMED 2009-03-10 09:00:00 TS -19.5502 88.5675 main 2293 2278 P_____________ SH192009 -19.5502 88.5675 TD 27 1002 -1 6 100
2009066S12081 2009 14 SI MM NOT_NAMED 2009-03-10 12:00:00 TS -19.6000 88.8000 main 2278 2278 O_____________ jtwc_sh SH192009 -19.6000 88.8000 TD 25 1004 -1 2 163
2009066S12081 2009 14 SI MM NOT_NAMED 2009-03-10 15:00:00 TS -19.7500 88.6327 main 2308 2308 P_____________ SH192009 -19.7500 88.6327 TD 25 1004 -1 6 237
2009066S12081 2009 14 SI MM NOT_NAMED 2009-03-10 18:00:00 TS -19.9000 88.3000 main 2339 2339 O_____________ jtwc_sh SH192009 -19.9000 88.3000 TD 25 1004 -1 6 249
2009066S12081 2009 14 SI MM NOT_NAMED 2009-03-10 21:00:00 TS -19.9574 88.0574 main 2361 2361 P_____________ SH192009 -19.9574 88.0574 TD 25 1004 -1 5 258
2009066S12081 2009 14 SI MM NOT_NAMED 2009-03-11 00:00:00 TS -20.0000 87.8000 main 2378 2378 O_____________ jtwc_sh SH192009 -20.0000 87.8000 TD 25 1004 -1 5 253
2009066S12081 2009 14 SI MM NOT_NAMED 2009-03-11 03:00:00 TS -20.1150 87.5076 main 2404 2404 P_____________ SH192009 -20.1150 87.5076 TD 25 1004 -1 6 250
2009066S12081 2009 14 SI MM NOT_NAMED 2009-03-11 06:00:00 TS -20.2000 87.2000 main 2430 2430 O_____________ jtwc_sh SH192009 -20.2000 87.2000 TD 25 1004 -1 6 263
2009066S12081 2009 14 SI MM NOT_NAMED 2009-03-11 09:00:00 TS -20.1799 86.9074 main 2448 2444 P_____________ SH192009 -20.1799 86.9074 TD 25 1004 -1 6 280
2009066S12081 2009 14 SI MM NOT_NAMED 2009-03-11 12:00:00 TS -20.1000 86.6000 main 2456 2453 O_____________ jtwc_sh SH192009 -20.1000 86.6000 TD 25 1004 -1 6 288
2009066S12081 2009 14 SI MM NOT_NAMED 2009-03-11 15:00:00 TS -19.9850 86.2573 main 2465 2465 P_____________ SH192009 -19.9850 86.2573 TD 25 1004 -1 7 287
2009066S12081 2009 14 SI MM NOT_NAMED 2009-03-11 18:00:00 TS -19.9000 85.9000 main 2480 2480 O_____________ jtwc_sh SH192009 -19.9000 85.9000 TD 25 1004 -1 6 276
2009066S12081 2009 14 SI MM NOT_NAMED 2009-03-11 21:00:00 TS -19.9196 85.5950 main 2499 2499 P_____________ SH192009 -19.9196 85.5950 TD 25 1004 -1 7 261
2009066S12081 2009 14 SI MM NOT_NAMED 2009-03-12 00:00:00 TS -20.0000 85.2000 main 2533 2533 O_____________ jtwc_sh SH192009 -20.0000 85.2000 TD 25 1004 -1 10 257
2009066S12081 2009 14 SI MM NOT_NAMED 2009-03-12 03:00:00 TS -20.1303 84.5880 main 2581 2581 P_____________ SH192009 -20.1303 84.5880 TD 22 1005 -1 12 261
2009066S12081 2009 14 SI MM NOT_NAMED 2009-03-12 06:00:00 NR -20.2000 83.9000 main 2636 2636 O_____________ jtwc_sh SH192009 -20.2000 83.9000 DB 20 1007 -3 12 273
2009066S12081 2009 14 SI MM NOT_NAMED 2009-03-12 09:00:00 NR -20.0571 83.2993 main 2658 2597 P_____________ SH192009 -20.0571 83.2993 DB 17 1008 -3 12 285
2009066S12081 2009 14 SI MM NOT_NAMED 2009-03-12 12:00:00 NR -19.9000 82.7000 main 2597 2535 O_____________ jtwc_sh SH192009 -19.9000 82.7000 DB 15 1010 -3 12 277
2009066S12081 2009 14 SI MM NOT_NAMED 2009-03-12 15:00:00 NR -19.9123 82.0577 main 2535 2461 P_____________ SH192009 -19.9123 82.0577 DB 15 1010 -3 12 265
2009066S12081 2009 14 SI MM NOT_NAMED 2009-03-12 18:00:00 NR -20.0000 81.4000 main 2461 2398 O_____________ jtwc_sh SH192009 -20.0000 81.4000 DB 15 1010 -3 12 262
2009066S12081 2009 14 SI MM NOT_NAMED 2009-03-12 21:00:00 NR -20.0845 80.7723 main 2398 2324 P_____________ SH192009 -20.0845 80.7723 DB 15 1010 -3 12 261
2009066S12081 2009 14 SI MM NOT_NAMED 2009-03-13 00:00:00 NR -20.2000 80.1000 main 2324 2239 O_____________ jtwc_sh SH192009 -20.2000 80.1000 DB 15 1010 -3 14 259
2009066S12081 2009 14 SI MM NOT_NAMED 2009-03-13 03:00:00 NR -20.3652 79.3004 main 2239 2155 P_____________ SH192009 -20.3652 79.3004 DB 15 1010 -3 15 259
2009066S12081 2009 14 SI MM NOT_NAMED 2009-03-13 06:00:00 NR -20.5000 78.5000 main 2155 2082 O_____________ jtwc_sh SH192009 -20.5000 78.5000 DB 15 1010 -3 14 263
2009066S12081 2009 14 SI MM NOT_NAMED 2009-03-13 09:00:00 NR -20.5326 77.8121 main 2082 2020 P_____________ SH192009 -20.5326 77.8121 DB 15 1010 -3 12 270
2009066S12081 2009 14 SI MM NOT_NAMED 2009-03-13 12:00:00 NR -20.5000 77.2000 main 2020 O_____________ jtwc_sh SH192009 -20.5000 77.2000 DB 15 1010 -3 11 273

About IBTrACS Database

This database is a web-friendly format of International Best Track Archive for Climate Stewardship (IBTrACS), a global best track data archive curated by NOAA dating back to 1842.

Updated: 2021-12-03